createdAt,value
2022-12-31T00:01:52.036Z,49.35
2022-12-31T00:04:18.765Z,50.75
2022-12-31T00:06:46.262Z,54.47
2022-12-31T00:09:13.082Z,59.85
2022-12-31T00:11:40.327Z,65.93
2022-12-31T00:14:07.288Z,51.80
2022-12-31T00:16:37.771Z,52.88
2022-12-31T00:19:06.368Z,51.67
2022-12-31T00:21:34.208Z,50.20
2022-12-31T00:24:01.844Z,55.22
2022-12-31T00:26:31.179Z,51.50
2022-12-31T00:28:59.647Z,49.42
2022-12-31T00:31:32.307Z,47.80
2022-12-31T00:33:59.816Z,56.10
2022-12-31T00:36:29.737Z,52.25
2022-12-31T00:38:58.310Z,52.75
2022-12-31T00:41:26.986Z,47.53
2022-12-31T00:43:54.330Z,47.70
2022-12-31T00:46:21.863Z,47.00
2022-12-31T00:48:49.289Z,50.60
2022-12-31T00:51:17.932Z,52.42
2022-12-31T00:53:45.185Z,52.38
2022-12-31T00:56:15.686Z,76.90
2022-12-31T00:58:43.359Z,72.75
2022-12-31T01:01:10.240Z,58.17
2022-12-31T01:03:37.040Z,53.65
2022-12-31T01:06:04.087Z,51.42
2022-12-31T01:08:30.844Z,89.15
2022-12-31T01:11:16.199Z,50.65
2022-12-31T01:13:43.073Z,50.35
2022-12-31T01:16:12.378Z,47.97
2022-12-31T01:18:39.812Z,49.47
2022-12-31T01:21:10.385Z,50.58
2022-12-31T01:23:37.393Z,44.10
2022-12-31T01:26:07.484Z,47.80
2022-12-31T01:28:34.431Z,47.92
2022-12-31T01:31:10.847Z,52.88
2022-12-31T01:33:38.527Z,52.13
2022-12-31T01:36:29.567Z,58.60
2022-12-31T01:38:59.988Z,56.90
2022-12-31T01:41:29.928Z,59.95
2022-12-31T01:44:02.509Z,54.95
2022-12-31T01:46:34.792Z,54.17
2022-12-31T01:49:21.810Z,57.53
2022-12-31T01:51:54.986Z,52.97
2022-12-31T01:54:25.182Z,54.20
2022-12-31T01:56:53.757Z,56.38
2022-12-31T01:59:22.531Z,56.08
2022-12-31T02:01:55.104Z,60.83
2022-12-31T02:04:25.043Z,63.55
2022-12-31T02:07:01.915Z,64.68
2022-12-31T02:09:30.487Z,57.85
2022-12-31T02:11:57.210Z,61.33
2022-12-31T02:14:30.787Z,55.60
2022-12-31T02:17:09.788Z,57.35
2022-12-31T02:20:10.629Z,59.38
2022-12-31T02:22:43.210Z,58.67
2022-12-31T02:25:26.492Z,61.17
2022-12-31T02:27:53.291Z,57.47
2022-12-31T02:30:23.326Z,55.67
2022-12-31T02:35:23.195Z,55.28
2022-12-31T02:37:54.831Z,51.58
2022-12-31T02:40:22.882Z,54.45
2022-12-31T02:42:55.104Z,54.38
2022-12-31T02:45:29.764Z,54.63
2022-12-31T02:48:10.578Z,56.75
2022-12-31T02:51:05.252Z,54.72
2022-12-31T02:54:22.784Z,57.72
2022-12-31T02:56:53.641Z,57.33
2022-12-31T02:59:51.785Z,52.95
2022-12-31T03:02:23.723Z,49.65
2022-12-31T03:04:56.263Z,53.03
2022-12-31T03:07:29.033Z,52.03
2022-12-31T03:09:56.197Z,56.42
2022-12-31T03:12:45.639Z,59.90
2022-12-31T03:15:39.043Z,52.65
2022-12-31T03:18:07.258Z,55.97
2022-12-31T03:21:02.988Z,60.53
2022-12-31T03:23:36.090Z,63.45
2022-12-31T03:26:10.276Z,64.65
2022-12-31T03:28:41.805Z,62.50
2022-12-31T03:31:09.167Z,58.95
2022-12-31T03:33:39.236Z,61.80
2022-12-31T03:38:34.313Z,62.67
2022-12-31T03:41:01.042Z,61.15
2022-12-31T03:43:27.982Z,56.22
2022-12-31T03:45:55.240Z,61.53
2022-12-31T03:48:23.525Z,65.13
2022-12-31T03:50:50.938Z,65.25
2022-12-31T03:53:18.115Z,59.20
2022-12-31T03:55:44.957Z,67.38
2022-12-31T03:58:11.767Z,60.35
2022-12-31T04:00:38.591Z,69.70
2022-12-31T04:03:06.351Z,65.50
2022-12-31T04:05:33.804Z,68.05
2022-12-31T04:08:00.737Z,65.00
2022-12-31T04:10:27.432Z,64.25
2022-12-31T04:12:54.295Z,65.97
2022-12-31T04:15:21.610Z,66.35
2022-12-31T04:17:49.032Z,63.75
2022-12-31T04:20:16.308Z,67.03
2022-12-31T04:22:44.176Z,64.25
2022-12-31T04:25:11.735Z,59.92
2022-12-31T04:27:43.809Z,64.88
2022-12-31T04:30:12.639Z,62.47
2022-12-31T04:32:39.525Z,65.30
2022-12-31T04:35:07.025Z,69.30
2022-12-31T04:37:34.992Z,62.17
2022-12-31T04:40:05.800Z,64.00
2022-12-31T04:42:32.960Z,65.57
2022-12-31T04:44:59.786Z,67.30
2022-12-31T04:47:26.691Z,67.38
2022-12-31T04:49:53.460Z,63.03
2022-12-31T04:52:20.451Z,64.45
2022-12-31T04:54:47.215Z,71.85
2022-12-31T04:57:13.974Z,62.80
2022-12-31T04:59:40.825Z,62.88
2022-12-31T05:02:07.651Z,64.80
2022-12-31T05:04:34.737Z,65.88
2022-12-31T05:07:01.615Z,61.78
2022-12-31T05:09:28.446Z,61.63
2022-12-31T05:11:55.360Z,58.20
2022-12-31T05:14:22.560Z,61.20
2022-12-31T05:16:49.499Z,62.20
2022-12-31T05:19:16.630Z,59.88
2022-12-31T05:21:43.576Z,55.72
2022-12-31T05:24:10.376Z,55.58
2022-12-31T05:26:37.153Z,59.60
2022-12-31T05:29:03.953Z,54.15
2022-12-31T05:31:30.664Z,56.13
2022-12-31T05:33:57.518Z,53.90
2022-12-31T05:36:24.353Z,52.95
2022-12-31T05:38:51.119Z,48.97
2022-12-31T05:41:17.932Z,51.47
2022-12-31T05:43:44.705Z,43.47
2022-12-31T05:46:11.540Z,46.38
2022-12-31T05:48:38.291Z,50.55
2022-12-31T05:51:05.294Z,47.60
2022-12-31T05:53:33.448Z,44.80
2022-12-31T05:56:00.198Z,48.83
2022-12-31T05:58:26.981Z,48.83
2022-12-31T06:00:53.866Z,54.83
2022-12-31T06:03:20.774Z,51.13
2022-12-31T06:05:47.686Z,56.80
2022-12-31T06:08:14.500Z,57.85
2022-12-31T06:10:41.463Z,54.30
2022-12-31T06:13:09.139Z,57.60
2022-12-31T06:15:40.140Z,59.95
2022-12-31T06:18:08.089Z,57.05
2022-12-31T06:20:38.503Z,55.58
2022-12-31T06:23:05.912Z,52.50
2022-12-31T06:25:34.936Z,52.47
2022-12-31T06:28:01.776Z,52.13
2022-12-31T06:30:28.468Z,49.58
2022-12-31T06:32:55.997Z,54.28
2022-12-31T06:35:23.368Z,58.67
2022-12-31T06:37:52.191Z,59.33
2022-12-31T06:40:18.948Z,58.90
2022-12-31T06:42:45.949Z,61.05
2022-12-31T06:45:12.776Z,59.15
2022-12-31T06:47:39.539Z,54.78
2022-12-31T06:50:07.347Z,55.40
2022-12-31T06:52:34.098Z,54.10
2022-12-31T06:55:01.301Z,54.53
2022-12-31T06:57:28.407Z,54.85
2022-12-31T06:59:55.492Z,58.95
2022-12-31T07:02:27.371Z,54.90
2022-12-31T07:05:10.133Z,56.00
2022-12-31T07:07:46.172Z,58.70
2022-12-31T07:10:30.053Z,55.70
2022-12-31T07:13:06.906Z,56.92
2022-12-31T07:15:48.649Z,65.32
2022-12-31T07:18:37.994Z,62.40
2022-12-31T07:21:12.796Z,60.57
2022-12-31T07:23:40.907Z,57.00
2022-12-31T07:26:32.806Z,57.63
2022-12-31T07:29:17.094Z,57.25
2022-12-31T07:32:25.363Z,58.30
2022-12-31T07:35:35.271Z,59.78
2022-12-31T07:38:47.645Z,60.42
2022-12-31T07:41:23.365Z,65.60
2022-12-31T07:44:27.929Z,65.32
2022-12-31T07:46:58.088Z,60.20
2022-12-31T07:51:53.587Z,60.00
2022-12-31T07:54:20.566Z,63.08
2022-12-31T07:56:48.178Z,55.92
2022-12-31T07:59:26.786Z,54.70
2022-12-31T08:02:03.087Z,57.30
2022-12-31T08:05:01.893Z,65.20
2022-12-31T08:07:53.828Z,65.57
2022-12-31T08:10:32.971Z,51.60
2022-12-31T08:13:05.492Z,55.20
2022-12-31T08:15:32.594Z,49.95
2022-12-31T08:17:59.576Z,50.35
2022-12-31T08:20:27.240Z,54.17
2022-12-31T08:23:15.452Z,51.10
2022-12-31T08:26:03.486Z,47.92
2022-12-31T08:28:33.145Z,50.25
2022-12-31T08:31:14.941Z,57.63
2022-12-31T08:33:52.487Z,55.47
2022-12-31T08:36:28.320Z,48.40
2022-12-31T08:39:03.897Z,50.90
2022-12-31T08:41:44.188Z,54.53
2022-12-31T08:44:16.999Z,53.40
2022-12-31T08:47:04.032Z,48.45
2022-12-31T08:49:33.539Z,50.40
2022-12-31T08:52:01.386Z,49.50
2022-12-31T08:54:29.348Z,53.40
2022-12-31T08:57:14.746Z,50.47
2022-12-31T08:59:44.483Z,51.75
2022-12-31T09:02:29.618Z,54.35
2022-12-31T09:05:08.727Z,52.80
2022-12-31T09:08:00.556Z,58.25
2022-12-31T09:10:32.047Z,51.15
2022-12-31T09:13:23.662Z,58.15
2022-12-31T09:16:22.854Z,53.85
2022-12-31T09:18:49.712Z,52.90
2022-12-31T09:21:16.696Z,52.08
2022-12-31T09:23:44.079Z,58.13
2022-12-31T09:26:23.049Z,51.30
2022-12-31T09:29:12.368Z,52.17
2022-12-31T09:31:39.188Z,47.13
2022-12-31T09:35:04.052Z,54.53
2022-12-31T09:37:56.355Z,48.53
2022-12-31T09:40:23.096Z,51.90
2022-12-31T09:43:05.626Z,103.40
2022-12-31T09:46:26.692Z,72.90
2022-12-31T09:49:08.645Z,48.65
2022-12-31T09:51:47.572Z,49.47
2022-12-31T09:54:20.367Z,48.53
2022-12-31T09:56:59.703Z,47.78
2022-12-31T09:59:33.828Z,47.13
2022-12-31T10:02:13.151Z,80.68
2022-12-31T10:04:52.061Z,168.57
2022-12-31T10:07:38.423Z,101.63
2022-12-31T10:10:26.107Z,75.78
2022-12-31T10:13:07.955Z,54.42
2022-12-31T10:16:13.111Z,53.95
2022-12-31T10:18:54.774Z,44.30
2022-12-31T10:21:58.384Z,43.45
2022-12-31T10:24:44.343Z,43.88
2022-12-31T10:27:21.314Z,41.40
2022-12-31T10:30:03.626Z,41.80
2022-12-31T10:32:56.531Z,41.70
2022-12-31T10:36:00.588Z,39.08
2022-12-31T10:38:41.746Z,40.65
2022-12-31T10:41:36.095Z,42.95
2022-12-31T10:44:30.821Z,40.00
2022-12-31T10:47:41.802Z,44.42
2022-12-31T10:50:28.754Z,51.30
2022-12-31T10:53:09.438Z,93.20
2022-12-31T10:56:14.307Z,65.80
2022-12-31T10:59:02.819Z,46.70
2022-12-31T11:01:48.290Z,107.10
2022-12-31T11:04:21.098Z,67.97
2022-12-31T11:07:10.890Z,93.03
2022-12-31T11:09:40.658Z,62.13
2022-12-31T11:12:39.541Z,50.78
2022-12-31T11:15:29.032Z,61.15
2022-12-31T11:18:17.942Z,46.83
2022-12-31T11:21:11.038Z,45.42
2022-12-31T11:23:56.515Z,43.75
2022-12-31T11:26:44.569Z,48.03
2022-12-31T11:29:24.608Z,49.00
2022-12-31T11:35:06.242Z,40.50
2022-12-31T11:37:36.934Z,36.70
2022-12-31T11:40:19.745Z,38.20
2022-12-31T11:43:00.516Z,36.67
2022-12-31T11:45:48.597Z,42.78
2022-12-31T11:51:40.698Z,29.92
2022-12-31T11:54:38.876Z,32.33
2022-12-31T11:57:36.841Z,30.27
2022-12-31T12:00:19.074Z,29.67
2022-12-31T12:02:49.834Z,23.77
2022-12-31T12:05:20.617Z,23.60
2022-12-31T12:07:51.711Z,28.73
2022-12-31T12:10:43.466Z,25.80
2022-12-31T12:13:23.454Z,24.67
2022-12-31T12:18:47.878Z,23.05
2022-12-31T12:21:24.283Z,21.98
2022-12-31T12:24:19.788Z,20.25
2022-12-31T12:26:46.878Z,17.75
2022-12-31T12:29:19.726Z,17.95
2022-12-31T12:32:06.377Z,18.70
2022-12-31T12:34:43.107Z,14.77
2022-12-31T12:37:33.406Z,15.55
2022-12-31T12:40:09.437Z,14.45
2022-12-31T12:42:36.408Z,16.42
2022-12-31T12:45:21.889Z,13.90
2022-12-31T12:47:53.821Z,14.00
2022-12-31T12:50:24.371Z,15.90
2022-12-31T12:53:00.597Z,15.00
2022-12-31T12:55:33.951Z,11.93
2022-12-31T12:58:37.882Z,12.75
2022-12-31T13:01:27.364Z,11.98
2022-12-31T13:04:32.587Z,15.45
2022-12-31T13:06:55.976Z,7.07
2022-12-31T13:09:44.844Z,7.00
2022-12-31T13:12:27.771Z,6.63
2022-12-31T13:15:09.034Z,7.03
2022-12-31T13:17:59.906Z,8.38
2022-12-31T13:20:41.533Z,7.18
2022-12-31T13:23:28.450Z,10.60
2022-12-31T13:26:12.902Z,10.35
2022-12-31T13:28:42.793Z,7.45
2022-12-31T13:34:03.949Z,8.07
2022-12-31T13:36:35.626Z,9.77
2022-12-31T13:39:06.842Z,9.73
2022-12-31T13:41:40.247Z,9.73
2022-12-31T13:44:28.915Z,9.55
2022-12-31T13:47:20.523Z,12.93
2022-12-31T13:49:52.729Z,8.80
2022-12-31T13:52:36.116Z,8.73
2022-12-31T13:55:21.147Z,13.20
2022-12-31T13:58:02.125Z,10.60
2022-12-31T14:00:45.167Z,8.88
2022-12-31T14:03:52.787Z,10.50
2022-12-31T14:06:37.454Z,9.13
2022-12-31T14:09:06.066Z,10.23
2022-12-31T14:12:12.383Z,9.73
2022-12-31T14:15:03.389Z,10.55
2022-12-31T14:17:50.497Z,11.30
2022-12-31T14:20:33.732Z,12.20
2022-12-31T14:23:06.970Z,16.40
2022-12-31T14:25:39.156Z,17.60
2022-12-31T14:28:11.716Z,16.73
2022-12-31T14:30:44.765Z,12.20
2022-12-31T14:33:22.850Z,12.63
2022-12-31T14:35:57.927Z,11.60
2022-12-31T14:39:06.319Z,12.07
2022-12-31T14:42:10.319Z,14.50
2022-12-31T14:44:48.895Z,13.10
2022-12-31T14:47:36.838Z,13.13
2022-12-31T14:50:11.391Z,12.25
2022-12-31T14:53:03.757Z,8.40
2022-12-31T14:55:31.859Z,6.95
2022-12-31T15:01:03.441Z,7.95
2022-12-31T15:03:45.009Z,11.02
2022-12-31T15:06:41.788Z,16.05
2022-12-31T15:09:19.965Z,10.65
2022-12-31T15:12:04.901Z,12.13
2022-12-31T15:14:58.021Z,19.60
2022-12-31T15:17:50.286Z,20.40
2022-12-31T15:20:54.592Z,27.50
2022-12-31T15:23:33.975Z,23.05
2022-12-31T15:26:01.747Z,29.55
2022-12-31T15:28:38.746Z,25.77
2022-12-31T15:31:19.283Z,20.35
2022-12-31T15:34:08.139Z,16.02
2022-12-31T15:36:38.667Z,15.50
2022-12-31T15:39:11.692Z,14.13
2022-12-31T15:41:46.081Z,13.73
2022-12-31T15:44:55.429Z,17.27
2022-12-31T15:47:37.122Z,23.42
2022-12-31T15:50:15.327Z,13.55
2022-12-31T15:52:46.664Z,12.65
2022-12-31T15:55:32.827Z,9.57
2022-12-31T15:58:05.239Z,13.55
2022-12-31T16:00:52.492Z,16.75
2022-12-31T16:03:23.401Z,10.30
2022-12-31T16:05:51.427Z,10.00
2022-12-31T16:08:24.773Z,13.00
2022-12-31T16:10:55.264Z,13.10
2022-12-31T16:13:24.029Z,18.00
2022-12-31T16:16:21.193Z,22.25
2022-12-31T16:18:50.243Z,18.25
2022-12-31T16:21:29.182Z,17.33
2022-12-31T16:23:58.126Z,22.17
2022-12-31T16:26:31.654Z,23.02
2022-12-31T16:29:04.227Z,23.20
2022-12-31T16:31:31.847Z,20.10
2022-12-31T16:34:07.489Z,26.42
2022-12-31T16:36:35.544Z,22.90
2022-12-31T16:39:25.371Z,19.85
2022-12-31T16:42:06.687Z,23.45
2022-12-31T16:44:33.412Z,21.60
2022-12-31T16:47:02.707Z,17.77
2022-12-31T16:49:32.083Z,17.48
2022-12-31T16:52:03.547Z,15.90
2022-12-31T16:54:34.453Z,17.25
2022-12-31T16:57:02.079Z,14.30
2022-12-31T16:59:41.312Z,18.00
2022-12-31T17:02:30.383Z,19.73
2022-12-31T17:04:57.407Z,16.73
2022-12-31T17:07:39.069Z,14.18
2022-12-31T17:10:08.845Z,8.70
2022-12-31T17:13:25.080Z,9.32
2022-12-31T17:15:45.479Z,9.73
2022-12-31T17:18:19.867Z,10.05
2022-12-31T17:20:47.635Z,10.75
2022-12-31T17:23:25.867Z,9.57
2022-12-31T17:26:03.315Z,9.98
2022-12-31T17:28:48.557Z,13.93
2022-12-31T17:31:28.633Z,11.70
2022-12-31T17:34:13.667Z,12.15
2022-12-31T17:36:52.206Z,10.82
2022-12-31T17:39:21.741Z,20.60
2022-12-31T17:41:51.202Z,26.15
2022-12-31T17:44:21.487Z,20.05
2022-12-31T17:46:50.126Z,15.00
2022-12-31T17:49:17.691Z,8.43
2022-12-31T17:51:47.737Z,12.13
2022-12-31T17:54:18.825Z,11.93
2022-12-31T17:56:46.169Z,11.63
2022-12-31T17:59:18.857Z,9.10
2022-12-31T18:01:45.767Z,8.55
2022-12-31T18:04:14.426Z,8.38
2022-12-31T18:06:41.986Z,7.50
2022-12-31T18:09:09.165Z,11.88
2022-12-31T18:11:37.883Z,12.70
2022-12-31T18:14:04.942Z,7.78
2022-12-31T18:16:31.756Z,8.93
2022-12-31T18:19:00.715Z,7.13
2022-12-31T18:21:32.783Z,7.37
2022-12-31T18:26:28.068Z,10.27
2022-12-31T18:28:56.054Z,9.38
2022-12-31T18:31:26.368Z,11.32
2022-12-31T18:33:55.256Z,10.90
2022-12-31T18:36:23.552Z,8.20
2022-12-31T18:38:50.807Z,10.00
2022-12-31T18:41:22.969Z,9.90
2022-12-31T18:43:50.528Z,11.20
2022-12-31T18:46:22.264Z,13.32
2022-12-31T18:48:49.010Z,9.15
2022-12-31T18:51:31.484Z,9.93
2022-12-31T18:54:00.806Z,10.27
2022-12-31T18:56:28.245Z,7.88
2022-12-31T18:58:55.083Z,7.50
2022-12-31T19:01:34.063Z,9.25
2022-12-31T19:04:03.141Z,9.97
2022-12-31T19:06:30.740Z,9.00
2022-12-31T19:09:00.664Z,9.40
2022-12-31T19:11:28.183Z,10.02
2022-12-31T19:13:54.926Z,18.90
2022-12-31T19:16:21.833Z,15.55
2022-12-31T19:18:49.549Z,11.75
2022-12-31T19:21:22.557Z,14.05
2022-12-31T19:23:51.827Z,19.52
2022-12-31T19:26:22.804Z,23.38
2022-12-31T19:28:50.971Z,15.38
2022-12-31T19:31:18.128Z,26.70
2022-12-31T19:33:45.308Z,18.33
2022-12-31T19:36:20.291Z,21.17
2022-12-31T19:38:47.591Z,20.05
2022-12-31T19:41:17.408Z,18.73
2022-12-31T19:43:44.908Z,22.60
2022-12-31T19:46:16.210Z,20.20
2022-12-31T19:48:43.579Z,14.07
2022-12-31T19:51:19.919Z,12.88
2022-12-31T19:53:47.973Z,11.15
2022-12-31T19:56:17.841Z,11.70
2022-12-31T19:58:44.700Z,10.93
2022-12-31T20:01:23.894Z,8.93
2022-12-31T20:03:51.749Z,10.93
2022-12-31T20:06:19.659Z,9.93
2022-12-31T20:08:46.641Z,9.10
2022-12-31T20:11:19.588Z,10.70
2022-12-31T20:13:48.178Z,12.20
2022-12-31T20:16:17.659Z,10.88
2022-12-31T20:18:46.491Z,8.43
2022-12-31T20:21:17.725Z,12.02
2022-12-31T20:23:44.989Z,10.02
2022-12-31T20:26:11.832Z,8.18
2022-12-31T20:28:38.793Z,8.50
2022-12-31T20:31:14.476Z,8.10
2022-12-31T20:33:41.709Z,9.30
2022-12-31T20:36:13.751Z,9.73
2022-12-31T20:38:40.990Z,8.05
2022-12-31T20:41:18.790Z,7.03
2022-12-31T20:43:46.576Z,12.82
2022-12-31T20:46:19.619Z,17.38
2022-12-31T20:48:48.616Z,20.92
2022-12-31T20:51:17.056Z,34.38
2022-12-31T20:54:01.475Z,22.45
2022-12-31T20:56:30.621Z,15.77
2022-12-31T20:58:57.652Z,14.73
2022-12-31T21:01:25.688Z,16.73
2022-12-31T21:04:10.680Z,11.75
2022-12-31T21:06:37.582Z,9.85
2022-12-31T21:09:06.803Z,8.45
2022-12-31T21:11:53.751Z,6.32
2022-12-31T21:14:20.982Z,5.47
2022-12-31T21:16:47.771Z,7.85
2022-12-31T21:19:14.537Z,7.55
2022-12-31T21:21:41.502Z,8.45
2022-12-31T21:24:08.704Z,7.25
2022-12-31T21:26:35.556Z,6.90
2022-12-31T21:29:02.448Z,6.18
2022-12-31T21:31:29.219Z,6.07
2022-12-31T21:33:56.017Z,6.63
2022-12-31T21:36:22.830Z,7.97
2022-12-31T21:38:49.535Z,7.03
2022-12-31T21:41:35.620Z,10.77
2022-12-31T21:44:02.899Z,7.13
2022-12-31T21:46:30.068Z,6.15
2022-12-31T21:48:58.519Z,6.22
2022-12-31T21:51:26.142Z,7.47
2022-12-31T21:53:53.223Z,6.25
2022-12-31T21:56:21.376Z,5.40
2022-12-31T21:59:17.367Z,4.40
2022-12-31T22:02:02.755Z,7.72
2022-12-31T22:05:02.005Z,7.18
2022-12-31T22:07:16.444Z,5.05
2022-12-31T22:09:43.284Z,6.45
2022-12-31T22:12:10.099Z,6.72
2022-12-31T22:14:36.858Z,6.47
2022-12-31T22:17:03.657Z,9.15
2022-12-31T22:19:30.435Z,9.73
2022-12-31T22:21:57.254Z,6.00
2022-12-31T22:24:23.968Z,6.63
2022-12-31T22:26:52.197Z,10.18
2022-12-31T22:29:19.848Z,9.00
2022-12-31T22:31:46.664Z,8.68
2022-12-31T22:34:13.520Z,9.32
2022-12-31T22:36:40.604Z,9.43
2022-12-31T22:39:07.321Z,6.47
2022-12-31T22:41:35.001Z,6.28
2022-12-31T22:44:04.781Z,6.82
2022-12-31T22:49:00.053Z,9.15
2022-12-31T22:51:55.909Z,8.30
2022-12-31T22:54:14.874Z,9.90
2022-12-31T22:56:41.848Z,7.53
2022-12-31T22:59:09.350Z,5.82
2022-12-31T23:01:37.268Z,5.55
2022-12-31T23:04:04.542Z,9.02
2022-12-31T23:06:31.433Z,8.35
2022-12-31T23:09:17.000Z,10.60
2022-12-31T23:11:43.934Z,10.35
2022-12-31T23:14:34.875Z,9.02
2022-12-31T23:17:30.880Z,9.13
2022-12-31T23:20:18.861Z,7.43
2022-12-31T23:23:05.603Z,10.20
2022-12-31T23:25:34.182Z,12.50
2022-12-31T23:28:00.990Z,12.68
2022-12-31T23:30:28.458Z,14.10
2022-12-31T23:32:55.376Z,14.10
2022-12-31T23:35:22.387Z,17.40
2022-12-31T23:37:49.232Z,17.98
2022-12-31T23:40:21.172Z,17.42
2022-12-31T23:42:51.919Z,20.95
2022-12-31T23:47:45.357Z,13.48
2022-12-31T23:50:12.225Z,16.08
2022-12-31T23:52:38.919Z,14.25
2022-12-31T23:55:05.831Z,9.48
2022-12-31T23:57:32.735Z,11.07
